DK-0020 weather

Frederikssund Syd Flyveplads
Capital Region, Denmark

Public forecast

Using degrees Celsius for public forecast. Weather courtesy of forecast.io.

METAR (pilot weather report)

Closest report is Copenhagen Roskilde Airport, 13.9 nm (25.7 km) S. Retrieved 2019/07/16 03:20 UTC (28 minutes ago):

EKRK 160320Z AUTO 00000KT 9999 BKN033/// OVC100/// 12/11 Q1011

TAF (pilot weather forecast)

Forecast is more than 12 hours old.

Closest forecast is Copenhagen Kastrup Airport, 22.7 nm (42.1 km) ESE. Retrieved 2019/07/15 00:31 UTC (1 day ago):

TAF EKCH 152320Z 1600/1624 33008KT 9999 BKN020